sensor_id;sensor_type;location;lat;lon;timestamp;pressure;altitude;pressure_sealevel;temperature;humidity
33075;BME280;19433;51.292;6.868;2023-07-13T00:00:10;100336.56;;;16.22;70.23
33075;BME280;19433;51.292;6.868;2023-07-13T00:02:36;100337.13;;;16.36;69.85
33075;BME280;19433;51.292;6.868;2023-07-13T00:05:01;100318.59;;;16.41;69.11
33075;BME280;19433;51.292;6.868;2023-07-13T00:07:26;100329.75;;;16.41;69.00
33075;BME280;19433;51.292;6.868;2023-07-13T00:09:52;100338.13;;;16.30;70.35
33075;BME280;19433;51.292;6.868;2023-07-13T00:14:52;100329.53;;;16.31;69.62
33075;BME280;19433;51.292;6.868;2023-07-13T00:17:17;100338.84;;;16.37;69.48
33075;BME280;19433;51.292;6.868;2023-07-13T00:19:43;100333.50;;;16.35;69.74
33075;BME280;19433;51.292;6.868;2023-07-13T00:22:08;100328.94;;;16.29;70.59
33075;BME280;19433;51.292;6.868;2023-07-13T00:24:33;100331.59;;;16.24;69.79
33075;BME280;19433;51.292;6.868;2023-07-13T00:27:01;100323.13;;;16.31;69.94
33075;BME280;19433;51.292;6.868;2023-07-13T00:29:26;100321.44;;;16.06;70.64
33075;BME280;19433;51.292;6.868;2023-07-13T00:31:51;100328.22;;;16.10;70.68
33075;BME280;19433;51.292;6.868;2023-07-13T00:34:16;100329.81;;;16.18;71.03
33075;BME280;19433;51.292;6.868;2023-07-13T00:36:42;100328.84;;;16.01;71.33
33075;BME280;19433;51.292;6.868;2023-07-13T00:39:07;100336.22;;;15.95;71.75
33075;BME280;19433;51.292;6.868;2023-07-13T00:41:33;100335.50;;;15.76;73.03
33075;BME280;19433;51.292;6.868;2023-07-13T00:43:59;100322.56;;;15.82;72.42
33075;BME280;19433;51.292;6.868;2023-07-13T00:46:32;100336.34;;;15.77;73.25
33075;BME280;19433;51.292;6.868;2023-07-13T00:49:04;100339.28;;;15.82;73.06
33075;BME280;19433;51.292;6.868;2023-07-13T00:51:36;100323.41;;;15.94;72.35
33075;BME280;19433;51.292;6.868;2023-07-13T00:54:05;100334.41;;;15.77;72.77
33075;BME280;19433;51.292;6.868;2023-07-13T00:56:32;100331.78;;;15.71;73.35
33075;BME280;19433;51.292;6.868;2023-07-13T00:58:59;100328.94;;;15.59;74.08
33075;BME280;19433;51.292;6.868;2023-07-13T01:01:25;100319.41;;;15.55;74.27
33075;BME280;19433;51.292;6.868;2023-07-13T01:03:51;100312.84;;;15.61;74.48
33075;BME280;19433;51.292;6.868;2023-07-13T01:06:16;100328.38;;;15.57;74.72
33075;BME280;19433;51.292;6.868;2023-07-13T01:08:42;100324.06;;;15.43;75.25
33075;BME280;19433;51.292;6.868;2023-07-13T01:11:08;100324.19;;;15.48;74.96
33075;BME280;19433;51.292;6.868;2023-07-13T01:13:33;100318.75;;;15.41;75.40
33075;BME280;19433;51.292;6.868;2023-07-13T01:16:02;100328.06;;;15.35;75.86
33075;BME280;19433;51.292;6.868;2023-07-13T01:18:29;100333.25;;;15.43;75.59
33075;BME280;19433;51.292;6.868;2023-07-13T01:21:00;100321.03;;;15.33;76.02
33075;BME280;19433;51.292;6.868;2023-07-13T01:23:29;100323.09;;;15.37;75.72
33075;BME280;19433;51.292;6.868;2023-07-13T01:25:56;100313.88;;;15.25;76.30
33075;BME280;19433;51.292;6.868;2023-07-13T01:28:22;100324.66;;;15.33;76.31
33075;BME280;19433;51.292;6.868;2023-07-13T01:30:52;100322.97;;;15.44;75.67
33075;BME280;19433;51.292;6.868;2023-07-13T01:33:18;100317.22;;;15.16;76.64
33075;BME280;19433;51.292;6.868;2023-07-13T01:35:45;100321.91;;;15.03;77.47
33075;BME280;19433;51.292;6.868;2023-07-13T01:38:12;100315.50;;;15.03;77.40
33075;BME280;19433;51.292;6.868;2023-07-13T01:40:39;100323.09;;;15.26;76.88
33075;BME280;19433;51.292;6.868;2023-07-13T01:43:05;100322.34;;;15.30;76.59
33075;BME280;19433;51.292;6.868;2023-07-13T01:45:30;100317.00;;;15.17;76.66
33075;BME280;19433;51.292;6.868;2023-07-13T01:47:55;100324.84;;;15.08;77.42
33075;BME280;19433;51.292;6.868;2023-07-13T01:50:21;100321.44;;;14.95;78.04
33075;BME280;19433;51.292;6.868;2023-07-13T01:52:46;100335.88;;;14.85;78.43
33075;BME280;19433;51.292;6.868;2023-07-13T01:55:12;100330.84;;;14.94;78.56
33075;BME280;19433;51.292;6.868;2023-07-13T01:57:37;100324.91;;;14.90;78.60
33075;BME280;19433;51.292;6.868;2023-07-13T02:00:04;100324.75;;;14.85;79.19
33075;BME280;19433;51.292;6.868;2023-07-13T02:02:30;100322.81;;;14.86;79.33
33075;BME280;19433;51.292;6.868;2023-07-13T02:04:55;100321.34;;;14.83;79.24
33075;BME280;19433;51.292;6.868;2023-07-13T02:07:21;100323.81;;;14.91;79.39
33075;BME280;19433;51.292;6.868;2023-07-13T02:09:46;100327.50;;;14.73;79.52
33075;BME280;19433;51.292;6.868;2023-07-13T02:12:12;100327.06;;;14.88;79.82
33075;BME280;19433;51.292;6.868;2023-07-13T02:14:37;100341.13;;;14.63;80.85
33075;BME280;19433;51.292;6.868;2023-07-13T02:17:03;100324.63;;;14.80;80.26
33075;BME280;19433;51.292;6.868;2023-07-13T02:19:29;100324.03;;;14.78;80.20
33075;BME280;19433;51.292;6.868;2023-07-13T02:21:54;100342.25;;;14.74;81.14
33075;BME280;19433;51.292;6.868;2023-07-13T02:24:19;100330.63;;;14.65;81.36
33075;BME280;19433;51.292;6.868;2023-07-13T02:26:46;100338.63;;;14.73;80.54
33075;BME280;19433;51.292;6.868;2023-07-13T02:29:11;100329.59;;;14.78;80.52
33075;BME280;19433;51.292;6.868;2023-07-13T02:31:37;100335.69;;;14.68;81.25
33075;BME280;19433;51.292;6.868;2023-07-13T02:34:03;100347.75;;;14.62;81.67
33075;BME280;19433;51.292;6.868;2023-07-13T02:36:29;100330.41;;;14.49;82.47
33075;BME280;19433;51.292;6.868;2023-07-13T02:38:55;100335.44;;;14.70;81.49
33075;BME280;19433;51.292;6.868;2023-07-13T02:41:20;100333.97;;;14.67;82.09
33075;BME280;19433;51.292;6.868;2023-07-13T02:43:47;100330.47;;;14.60;82.45
33075;BME280;19433;51.292;6.868;2023-07-13T02:46:13;100325.09;;;14.47;83.12
33075;BME280;19433;51.292;6.868;2023-07-13T02:48:39;100342.75;;;14.53;83.40
33075;BME280;19433;51.292;6.868;2023-07-13T02:51:05;100335.84;;;14.37;84.46
33075;BME280;19433;51.292;6.868;2023-07-13T02:53:30;100341.44;;;14.55;84.05
33075;BME280;19433;51.292;6.868;2023-07-13T02:55:55;100347.38;;;14.59;83.95
33075;BME280;19433;51.292;6.868;2023-07-13T02:58:22;100333.25;;;14.60;84.11
33075;BME280;19433;51.292;6.868;2023-07-13T03:00:48;100350.53;;;14.81;83.61
33075;BME280;19433;51.292;6.868;2023-07-13T03:03:15;100354.72;;;14.53;85.66
33075;BME280;19433;51.292;6.868;2023-07-13T03:05:43;100347.78;;;14.44;85.77
33075;BME280;19433;51.292;6.868;2023-07-13T03:08:10;100350.50;;;14.51;85.33
33075;BME280;19433;51.292;6.868;2023-07-13T03:10:35;100340.28;;;14.45;86.09
33075;BME280;19433;51.292;6.868;2023-07-13T03:13:01;100352.09;;;14.40;87.33
33075;BME280;19433;51.292;6.868;2023-07-13T03:15:27;100337.75;;;14.43;87.10
33075;BME280;19433;51.292;6.868;2023-07-13T03:17:52;100348.56;;;14.51;85.82
33075;BME280;19433;51.292;6.868;2023-07-13T03:20:17;100349.72;;;14.43;86.35
33075;BME280;19433;51.292;6.868;2023-07-13T03:22:43;100348.13;;;14.11;88.58
33075;BME280;19433;51.292;6.868;2023-07-13T03:25:11;100349.16;;;14.35;89.21
33075;BME280;19433;51.292;6.868;2023-07-13T03:27:37;100362.72;;;14.25;90.42
33075;BME280;19433;51.292;6.868;2023-07-13T03:30:04;100359.66;;;14.33;88.40
33075;BME280;19433;51.292;6.868;2023-07-13T03:32:30;100359.41;;;14.34;nan
33075;BME280;19433;51.292;6.868;2023-07-13T03:34:55;100356.72;;;14.28;89.09
33075;BME280;19433;51.292;6.868;2023-07-13T03:37:21;100352.84;;;14.29;89.42
33075;BME280;19433;51.292;6.868;2023-07-13T03:39:46;100368.34;;;14.36;89.56
33075;BME280;19433;51.292;6.868;2023-07-13T03:42:12;100369.47;;;14.35;89.04
33075;BME280;19433;51.292;6.868;2023-07-13T03:44:40;100362.09;;;14.23;91.75
33075;BME280;19433;51.292;6.868;2023-07-13T03:47:06;100354.59;;;14.23;90.13
33075;BME280;19433;51.292;6.868;2023-07-13T03:49:33;100377.31;;;14.20;91.30
33075;BME280;19433;51.292;6.868;2023-07-13T03:51:58;100372.84;;;14.19;89.85
33075;BME280;19433;51.292;6.868;2023-07-13T03:54:24;100371.28;;;14.23;90.09
33075;BME280;19433;51.292;6.868;2023-07-13T03:56:49;100384.56;;;14.21;89.59
33075;BME280;19433;51.292;6.868;2023-07-13T03:59:14;100376.47;;;14.38;88.81
33075;BME280;19433;51.292;6.868;2023-07-13T04:01:40;100390.22;;;14.33;88.91
33075;BME280;19433;51.292;6.868;2023-07-13T04:04:05;100393.97;;;14.38;88.51
33075;BME280;19433;51.292;6.868;2023-07-13T04:06:31;100402.66;;;14.67;87.02
33075;BME280;19433;51.292;6.868;2023-07-13T04:08:58;100402.81;;;14.72;87.46
33075;BME280;19433;51.292;6.868;2023-07-13T04:11:27;100403.03;;;14.70;86.98
33075;BME280;19433;51.292;6.868;2023-07-13T04:13:53;100408.38;;;14.72;86.54
33075;BME280;19433;51.292;6.868;2023-07-13T04:16:19;100403.44;;;14.74;87.23
33075;BME280;19433;51.292;6.868;2023-07-13T04:18:45;100409.28;;;14.84;86.72
33075;BME280;19433;51.292;6.868;2023-07-13T04:21:11;100405.75;;;14.77;86.85
33075;BME280;19433;51.292;6.868;2023-07-13T04:23:37;100412.72;;;14.98;85.58
33075;BME280;19433;51.292;6.868;2023-07-13T04:26:03;100415.50;;;14.98;85.03
33075;BME280;19433;51.292;6.868;2023-07-13T04:28:28;100412.72;;;14.98;85.20
33075;BME280;19433;51.292;6.868;2023-07-13T04:30:54;100415.38;;;14.93;85.33
33075;BME280;19433;51.292;6.868;2023-07-13T04:33:19;100412.72;;;14.98;85.14
33075;BME280;19433;51.292;6.868;2023-07-13T04:35:51;100401.72;;;15.21;84.50
33075;BME280;19433;51.292;6.868;2023-07-13T04:38:25;100412.78;;;15.39;83.23
33075;BME280;19433;51.292;6.868;2023-07-13T04:40:52;100413.97;;;15.32;83.96
33075;BME280;19433;51.292;6.868;2023-07-13T04:43:18;100407.56;;;15.43;83.18
33075;BME280;19433;51.292;6.868;2023-07-13T04:45:43;100422.19;;;15.57;82.73
33075;BME280;19433;51.292;6.868;2023-07-13T04:48:09;100416.88;;;15.55;82.41
33075;BME280;19433;51.292;6.868;2023-07-13T04:50:36;100417.47;;;15.57;82.76
33075;BME280;19433;51.292;6.868;2023-07-13T04:53:02;100416.66;;;15.68;82.10
33075;BME280;19433;51.292;6.868;2023-07-13T04:55:29;100417.50;;;15.80;81.60
33075;BME280;19433;51.292;6.868;2023-07-13T04:57:56;100420.44;;;15.97;81.04
33075;BME280;19433;51.292;6.868;2023-07-13T05:00:22;100420.78;;;15.89;81.20
33075;BME280;19433;51.292;6.868;2023-07-13T05:02:47;100413.78;;;16.10;80.64
33075;BME280;19433;51.292;6.868;2023-07-13T05:05:13;100427.09;;;16.08;80.80
33075;BME280;19433;51.292;6.868;2023-07-13T05:07:38;100423.94;;;16.04;80.97
33075;BME280;19433;51.292;6.868;2023-07-13T05:10:04;100419.97;;;16.12;80.67
33075;BME280;19433;51.292;6.868;2023-07-13T05:12:30;100434.88;;;16.29;80.34
33075;BME280;19433;51.292;6.868;2023-07-13T05:14:55;100430.38;;;16.16;80.48
33075;BME280;19433;51.292;6.868;2023-07-13T05:17:20;100434.13;;;16.22;80.26
33075;BME280;19433;51.292;6.868;2023-07-13T05:19:46;100437.78;;;16.11;81.17
33075;BME280;19433;51.292;6.868;2023-07-13T05:22:11;100436.66;;;16.35;80.60
33075;BME280;19433;51.292;6.868;2023-07-13T05:24:36;100436.31;;;16.43;79.98
33075;BME280;19433;51.292;6.868;2023-07-13T05:27:02;100441.38;;;16.58;78.96
33075;BME280;19433;51.292;6.868;2023-07-13T05:29:27;100438.59;;;16.58;78.78
33075;BME280;19433;51.292;6.868;2023-07-13T05:31:52;100450.84;;;16.57;79.50
33075;BME280;19433;51.292;6.868;2023-07-13T05:34:18;100453.38;;;16.82;78.36
33075;BME280;19433;51.292;6.868;2023-07-13T05:36:43;100454.22;;;16.82;78.82
33075;BME280;19433;51.292;6.868;2023-07-13T05:39:08;100453.38;;;16.94;78.06
33075;BME280;19433;51.292;6.868;2023-07-13T05:41:35;100459.41;;;17.02;77.99
33075;BME280;19433;51.292;6.868;2023-07-13T05:44:01;100470.75;;;17.12;77.56
33075;BME280;19433;51.292;6.868;2023-07-13T05:46:26;100465.59;;;17.04;77.73
33075;BME280;19433;51.292;6.868;2023-07-13T05:48:51;100472.75;;;17.00;78.35
33075;BME280;19433;51.292;6.868;2023-07-13T05:51:17;100481.03;;;16.95;78.35
33075;BME280;19433;51.292;6.868;2023-07-13T05:53:42;100477.34;;;17.06;78.07
33075;BME280;19433;51.292;6.868;2023-07-13T05:56:07;100471.91;;;17.00;78.43
33075;BME280;19433;51.292;6.868;2023-07-13T05:58:33;100472.31;;;16.92;78.51
33075;BME280;19433;51.292;6.868;2023-07-13T06:01:01;100473.19;;;16.69;79.70
33075;BME280;19433;51.292;6.868;2023-07-13T06:03:26;100477.06;;;16.68;80.49
33075;BME280;19433;51.292;6.868;2023-07-13T06:05:52;100478.03;;;16.73;80.66
33075;BME280;19433;51.292;6.868;2023-07-13T06:08:17;100474.88;;;16.58;80.62
33075;BME280;19433;51.292;6.868;2023-07-13T06:10:43;100485.94;;;16.65;81.04
33075;BME280;19433;51.292;6.868;2023-07-13T06:13:08;100487.81;;;16.52;81.76
33075;BME280;19433;51.292;6.868;2023-07-13T06:15:33;100480.69;;;16.57;81.73
33075;BME280;19433;51.292;6.868;2023-07-13T06:17:58;100493.81;;;16.79;81.08
33075;BME280;19433;51.292;6.868;2023-07-13T06:20:24;100492.53;;;16.99;80.96
33075;BME280;19433;51.292;6.868;2023-07-13T06:22:49;100503.41;;;17.23;79.56
33075;BME280;19433;51.292;6.868;2023-07-13T06:25:15;100495.00;;;17.35;79.12
33075;BME280;19433;51.292;6.868;2023-07-13T06:27:40;100494.75;;;17.65;78.05
33075;BME280;19433;51.292;6.868;2023-07-13T06:30:06;100503.19;;;17.82;76.59
33075;BME280;19433;51.292;6.868;2023-07-13T06:32:31;100498.63;;;17.92;76.63
33075;BME280;19433;51.292;6.868;2023-07-13T06:34:56;100512.38;;;18.11;76.14
33075;BME280;19433;51.292;6.868;2023-07-13T06:37:22;100510.00;;;18.36;75.06
33075;BME280;19433;51.292;6.868;2023-07-13T06:39:47;100497.63;;;18.66;73.54
33075;BME280;19433;51.292;6.868;2023-07-13T06:42:12;100508.63;;;18.72;72.84
33075;BME280;19433;51.292;6.868;2023-07-13T06:44:38;100517.75;;;18.63;73.01
33075;BME280;19433;51.292;6.868;2023-07-13T06:47:03;100515.19;;;18.78;72.51
33075;BME280;19433;51.292;6.868;2023-07-13T06:49:28;100528.41;;;19.26;70.54
33075;BME280;19433;51.292;6.868;2023-07-13T06:51:54;100517.31;;;19.53;69.25
33075;BME280;19433;51.292;6.868;2023-07-13T06:54:19;100507.91;;;19.91;68.08
33075;BME280;19433;51.292;6.868;2023-07-13T06:56:44;100509.47;;;20.09;67.47
33075;BME280;19433;51.292;6.868;2023-07-13T06:59:10;100527.94;;;20.31;66.18
33075;BME280;19433;51.292;6.868;2023-07-13T07:01:35;100531.69;;;20.42;66.07
33075;BME280;19433;51.292;6.868;2023-07-13T07:04:00;100526.44;;;20.51;65.30
33075;BME280;19433;51.292;6.868;2023-07-13T07:06:25;100528.75;;;20.32;65.96
33075;BME280;19433;51.292;6.868;2023-07-13T07:08:52;100529.56;;;19.95;67.34
33075;BME280;19433;51.292;6.868;2023-07-13T07:11:20;100541.00;;;20.21;66.51
33075;BME280;19433;51.292;6.868;2023-07-13T07:13:47;100540.72;;;20.49;65.79
33075;BME280;19433;51.292;6.868;2023-07-13T07:16:13;100542.84;;;20.69;64.85
33075;BME280;19433;51.292;6.868;2023-07-13T07:18:38;100549.66;;;20.41;65.60
33075;BME280;19433;51.292;6.868;2023-07-13T07:21:03;100547.13;;;19.86;67.40
33075;BME280;19433;51.292;6.868;2023-07-13T07:23:29;100540.38;;;19.87;67.26
33075;BME280;19433;51.292;6.868;2023-07-13T07:25:54;100551.22;;;20.05;66.90
33075;BME280;19433;51.292;6.868;2023-07-13T07:28:20;100552.59;;;20.02;66.84
33075;BME280;19433;51.292;6.868;2023-07-13T07:30:47;100549.34;;;20.38;66.30
33075;BME280;19433;51.292;6.868;2023-07-13T07:33:13;100547.03;;;20.34;65.32
33075;BME280;19433;51.292;6.868;2023-07-13T07:35:39;100553.13;;;20.26;66.15
33075;BME280;19433;51.292;6.868;2023-07-13T07:38:04;100545.50;;;20.49;64.57
33075;BME280;19433;51.292;6.868;2023-07-13T07:40:30;100549.59;;;20.36;64.98
33075;BME280;19433;51.292;6.868;2023-07-13T07:42:56;100548.00;;;20.18;65.80
33075;BME280;19433;51.292;6.868;2023-07-13T07:45:21;100541.00;;;20.21;66.55
33075;BME280;19433;51.292;6.868;2023-07-13T07:47:46;100547.53;;;20.26;66.30
33075;BME280;19433;51.292;6.868;2023-07-13T07:50:12;100550.81;;;20.82;64.41
33075;BME280;19433;51.292;6.868;2023-07-13T07:52:37;100546.75;;;21.57;61.67
33075;BME280;19433;51.292;6.868;2023-07-13T07:55:05;100554.28;;;22.50;56.95
33075;BME280;19433;51.292;6.868;2023-07-13T07:57:30;100558.44;;;22.01;57.75
33075;BME280;19433;51.292;6.868;2023-07-13T07:59:55;100558.31;;;21.71;59.77
33075;BME280;19433;51.292;6.868;2023-07-13T08:02:21;100551.72;;;21.40;60.47
33075;BME280;19433;51.292;6.868;2023-07-13T08:04:46;100550.94;;;21.55;59.51
33075;BME280;19433;51.292;6.868;2023-07-13T08:07:11;100564.22;;;21.64;59.49
33075;BME280;19433;51.292;6.868;2023-07-13T08:09:36;100550.03;;;21.39;60.23
33075;BME280;19433;51.292;6.868;2023-07-13T08:12:02;100554.63;;;21.60;60.01
33075;BME280;19433;51.292;6.868;2023-07-13T08:14:27;100552.63;;;21.56;59.96
33075;BME280;19433;51.292;6.868;2023-07-13T08:16:53;100549.56;;;21.52;59.74
33075;BME280;19433;51.292;6.868;2023-07-13T08:19:18;100550.06;;;22.57;57.11
33075;BME280;19433;51.292;6.868;2023-07-13T08:21:44;100553.97;;;22.92;55.50
33075;BME280;19433;51.292;6.868;2023-07-13T08:24:09;100547.81;;;22.79;55.99
33075;BME280;19433;51.292;6.868;2023-07-13T08:26:34;100551.75;;;22.89;55.57
33075;BME280;19433;51.292;6.868;2023-07-13T08:29:00;100548.22;;;23.47;53.08
33075;BME280;19433;51.292;6.868;2023-07-13T08:31:25;100549.13;;;23.28;53.78
33075;BME280;19433;51.292;6.868;2023-07-13T08:33:51;100543.09;;;23.60;52.89
33075;BME280;19433;51.292;6.868;2023-07-13T08:36:16;100550.75;;;23.49;52.14
33075;BME280;19433;51.292;6.868;2023-07-13T08:38:41;100541.88;;;22.96;54.23
33075;BME280;19433;51.292;6.868;2023-07-13T08:41:15;100542.75;;;23.76;53.47
33075;BME280;19433;51.292;6.868;2023-07-13T08:43:42;100545.00;;;25.20;48.08
33075;BME280;19433;51.292;6.868;2023-07-13T08:48:49;100542.31;;;25.34;47.15
33075;BME280;19433;51.292;6.868;2023-07-13T08:51:31;100541.97;;;24.83;48.81
33075;BME280;19433;51.292;6.868;2023-07-13T08:54:01;100536.53;;;24.18;50.24
33075;BME280;19433;51.292;6.868;2023-07-13T08:56:29;100551.22;;;23.71;52.50
33075;BME280;19433;51.292;6.868;2023-07-13T08:58:57;100538.59;;;23.64;53.47
33075;BME280;19433;51.292;6.868;2023-07-13T09:04:28;100532.03;;;22.68;56.47
33075;BME280;19433;51.292;6.868;2023-07-13T09:07:02;100542.72;;;22.97;55.99
33075;BME280;19433;51.292;6.868;2023-07-13T09:12:12;100541.50;;;25.05;49.78
33075;BME280;19433;51.292;6.868;2023-07-13T09:14:43;100542.22;;;24.86;48.96
33075;BME280;19433;51.292;6.868;2023-07-13T09:17:14;100545.16;;;23.98;51.52
33075;BME280;19433;51.292;6.868;2023-07-13T09:19:43;100548.97;;;23.68;52.61
33075;BME280;19433;51.292;6.868;2023-07-13T09:22:15;100547.50;;;23.06;54.93
33075;BME280;19433;51.292;6.868;2023-07-13T09:27:41;100561.59;;;22.76;58.11
33075;BME280;19433;51.292;6.868;2023-07-13T09:32:43;100547.53;;;22.61;58.64
33075;BME280;19433;51.292;6.868;2023-07-13T09:35:12;100551.75;;;22.84;57.79
33075;BME280;19433;51.292;6.868;2023-07-13T09:37:39;100550.06;;;22.77;57.01
33075;BME280;19433;51.292;6.868;2023-07-13T09:40:13;100552.00;;;22.62;57.02
33075;BME280;19433;51.292;6.868;2023-07-13T09:42:42;100555.69;;;22.62;57.08
33075;BME280;19433;51.292;6.868;2023-07-13T09:45:07;100563.28;;;22.46;58.16
33075;BME280;19433;51.292;6.868;2023-07-13T09:47:38;100555.13;;;22.30;58.05
33075;BME280;19433;51.292;6.868;2023-07-13T09:50:14;100561.06;;;22.59;57.16
33075;BME280;19433;51.292;6.868;2023-07-13T09:52:47;100555.41;;;22.59;56.95
33075;BME280;19433;51.292;6.868;2023-07-13T09:55:27;100566.69;;;22.43;58.39
33075;BME280;19433;51.292;6.868;2023-07-13T09:57:53;100563.00;;;22.48;57.58
33075;BME280;19433;51.292;6.868;2023-07-13T10:00:25;100561.63;;;22.91;55.09
33075;BME280;19433;51.292;6.868;2023-07-13T10:05:45;100575.66;;;25.08;48.77
33075;BME280;19433;51.292;6.868;2023-07-13T10:08:22;100577.47;;;25.76;46.32
33075;BME280;19433;51.292;6.868;2023-07-13T10:11:39;100578.25;;;26.43;43.92
33075;BME280;19433;51.292;6.868;2023-07-13T10:13:42;100582.63;;;27.19;42.56
33075;BME280;19433;51.292;6.868;2023-07-13T10:16:09;100583.66;;;26.58;43.08
33075;BME280;19433;51.292;6.868;2023-07-13T10:18:51;100577.84;;;25.88;44.29
33075;BME280;19433;51.292;6.868;2023-07-13T10:21:20;100578.72;;;26.63;42.92
33075;BME280;19433;51.292;6.868;2023-07-13T10:23:51;100599.38;;;27.02;41.64
33075;BME280;19433;51.292;6.868;2023-07-13T10:26:24;100587.72;;;27.77;40.32
33075;BME280;19433;51.292;6.868;2023-07-13T10:28:54;100586.94;;;28.84;38.42
33075;BME280;19433;51.292;6.868;2023-07-13T10:31:21;100601.59;;;27.78;38.77
33075;BME280;19433;51.292;6.868;2023-07-13T10:33:47;100591.75;;;26.46;41.04
33075;BME280;19433;51.292;6.868;2023-07-13T10:36:18;100587.22;;;25.12;44.40
33075;BME280;19433;51.292;6.868;2023-07-13T10:38:46;100581.75;;;24.58;46.44
33075;BME280;19433;51.292;6.868;2023-07-13T10:41:18;100588.91;;;24.45;47.54
33075;BME280;19433;51.292;6.868;2023-07-13T10:43:47;100575.78;;;24.93;47.28
33075;BME280;19433;51.292;6.868;2023-07-13T10:46:18;100590.84;;;26.50;43.36
33075;BME280;19433;51.292;6.868;2023-07-13T10:48:46;100592.16;;;26.90;41.56
33075;BME280;19433;51.292;6.868;2023-07-13T10:51:17;100590.13;;;26.21;42.59
33075;BME280;19433;51.292;6.868;2023-07-13T10:53:43;100596.38;;;25.99;43.77
33075;BME280;19433;51.292;6.868;2023-07-13T10:56:27;100591.47;;;26.28;43.16
33075;BME280;19433;51.292;6.868;2023-07-13T11:02:00;100600.31;;;27.98;38.92
33075;BME280;19433;51.292;6.868;2023-07-13T11:04:42;100609.47;;;27.67;39.17
33075;BME280;19433;51.292;6.868;2023-07-13T11:07:26;100610.00;;;27.70;39.31
33075;BME280;19433;51.292;6.868;2023-07-13T11:09:57;100601.72;;;26.62;41.54
33075;BME280;19433;51.292;6.868;2023-07-13T11:20:18;100586.09;;;23.96;47.97
33075;BME280;19433;51.292;6.868;2023-07-13T11:23:16;100579.50;;;25.46;44.86
33075;BME280;19433;51.292;6.868;2023-07-13T11:25:43;100583.25;;;27.43;40.27
33075;BME280;19433;51.292;6.868;2023-07-13T11:33:51;100584.03;;;29.99;34.16
33075;BME280;19433;51.292;6.868;2023-07-13T11:36:23;100593.31;;;30.22;33.66
33075;BME280;19433;51.292;6.868;2023-07-13T11:39:02;100600.00;;;31.30;31.92
33075;BME280;19433;51.292;6.868;2023-07-13T11:41:31;100584.78;;;30.83;33.17
33075;BME280;19433;51.292;6.868;2023-07-13T11:44:28;100578.53;;;30.20;32.90
33075;BME280;19433;51.292;6.868;2023-07-13T11:47:00;100584.09;;;31.11;32.16
33075;BME280;19433;51.292;6.868;2023-07-13T11:49:30;100586.47;;;31.47;31.48
33075;BME280;19433;51.292;6.868;2023-07-13T11:51:56;100572.88;;;30.81;31.36
33075;BME280;19433;51.292;6.868;2023-07-13T11:57:01;100582.25;;;30.47;32.08
33075;BME280;19433;51.292;6.868;2023-07-13T11:59:31;100568.84;;;30.56;32.49
33075;BME280;19433;51.292;6.868;2023-07-13T12:01:58;100565.78;;;30.26;32.72
33075;BME280;19433;51.292;6.868;2023-07-13T12:04:26;100570.31;;;29.00;35.24
33075;BME280;19433;51.292;6.868;2023-07-13T12:06:56;100560.47;;;29.06;36.02
33075;BME280;19433;51.292;6.868;2023-07-13T12:09:21;100577.19;;;30.43;32.84
33075;BME280;19433;51.292;6.868;2023-07-13T12:11:51;100556.16;;;29.88;33.03
33075;BME280;19433;51.292;6.868;2023-07-13T12:14:17;100557.19;;;29.21;33.17
33075;BME280;19433;51.292;6.868;2023-07-13T12:16:43;100559.00;;;28.64;34.41
33075;BME280;19433;51.292;6.868;2023-07-13T12:19:18;100556.53;;;27.99;34.13
33075;BME280;19433;51.292;6.868;2023-07-13T12:21:44;100551.16;;;26.69;36.68
33075;BME280;19433;51.292;6.868;2023-07-13T12:24:18;100545.63;;;25.84;39.62
33075;BME280;19433;51.292;6.868;2023-07-13T12:26:46;100545.94;;;25.11;40.41
33075;BME280;19433;51.292;6.868;2023-07-13T12:29:16;100549.13;;;24.41;42.14
33075;BME280;19433;51.292;6.868;2023-07-13T12:31:45;100549.16;;;23.87;43.86
33075;BME280;19433;51.292;6.868;2023-07-13T12:34:13;100551.59;;;23.49;44.81
33075;BME280;19433;51.292;6.868;2023-07-13T12:41:50;100542.75;;;23.76;45.06
33075;BME280;19433;51.292;6.868;2023-07-13T12:44:18;100543.44;;;24.02;43.66
33075;BME280;19433;51.292;6.868;2023-07-13T12:46:59;100532.09;;;24.12;41.96
33075;BME280;19433;51.292;6.868;2023-07-13T12:49:32;100540.34;;;23.99;42.25
33075;BME280;19433;51.292;6.868;2023-07-13T12:52:01;100540.22;;;24.24;41.32
33075;BME280;19433;51.292;6.868;2023-07-13T12:54:28;100537.50;;;23.99;42.47
33075;BME280;19433;51.292;6.868;2023-07-13T12:56:56;100544.56;;;23.52;43.32
33075;BME280;19433;51.292;6.868;2023-07-13T12:59:24;100548.06;;;22.98;44.60
33075;BME280;19433;51.292;6.868;2023-07-13T13:01:51;100547.50;;;22.66;45.37
33075;BME280;19433;51.292;6.868;2023-07-13T13:04:17;100541.88;;;22.51;46.15
33075;BME280;19433;51.292;6.868;2023-07-13T13:06:47;100546.66;;;22.50;46.56
33075;BME280;19433;51.292;6.868;2023-07-13T13:09:14;100542.72;;;22.26;46.30
33075;BME280;19433;51.292;6.868;2023-07-13T13:11:40;100548.91;;;22.33;46.84
33075;BME280;19433;51.292;6.868;2023-07-13T13:14:06;100555.38;;;22.33;47.48
33075;BME280;19433;51.292;6.868;2023-07-13T13:16:37;100551.75;;;22.68;47.66
33075;BME280;19433;51.292;6.868;2023-07-13T13:19:25;100552.78;;;23.23;45.59
33075;BME280;19433;51.292;6.868;2023-07-13T13:21:52;100559.28;;;23.24;45.76
33075;BME280;19433;51.292;6.868;2023-07-13T13:24:23;100562.13;;;23.13;45.87
33075;BME280;19433;51.292;6.868;2023-07-13T13:26:51;100556.97;;;23.41;46.41
33075;BME280;19433;51.292;6.868;2023-07-13T13:29:20;100558.84;;;23.71;46.99
33075;BME280;19433;51.292;6.868;2023-07-13T13:31:46;100551.75;;;24.62;43.59
33075;BME280;19433;51.292;6.868;2023-07-13T13:34:14;100558.22;;;25.97;41.20